createdAt,value
2018-07-12T00:01:41.397Z,1.57
2018-07-12T00:04:08.576Z,1.43
2018-07-12T00:06:35.741Z,1.40
2018-07-12T00:09:03.346Z,1.33
2018-07-12T00:11:30.546Z,1.50
2018-07-12T00:13:57.721Z,1.50
2018-07-12T00:16:24.864Z,1.60
2018-07-12T00:18:52.018Z,1.40
2018-07-12T00:21:19.567Z,1.40
2018-07-12T00:23:46.747Z,1.60
2018-07-12T00:26:13.893Z,1.50
2018-07-12T00:28:41.041Z,1.47
2018-07-12T00:31:08.304Z,1.40
2018-07-12T00:33:35.477Z,1.20
2018-07-12T00:36:02.676Z,2.07
2018-07-12T00:38:29.847Z,1.40
2018-07-12T00:40:57.016Z,1.40
2018-07-12T00:43:24.188Z,1.50
2018-07-12T00:45:51.366Z,1.30
2018-07-12T00:48:18.515Z,1.40
2018-07-12T00:50:45.789Z,1.40
2018-07-12T00:53:12.932Z,1.57
2018-07-12T00:55:40.152Z,1.50
2018-07-12T00:58:07.304Z,1.40
2018-07-12T01:00:34.465Z,1.40
2018-07-12T01:03:01.636Z,1.50
2018-07-12T01:05:28.793Z,1.93
2018-07-12T01:07:55.941Z,1.40
2018-07-12T01:10:23.112Z,1.67
2018-07-12T01:12:50.308Z,1.40
2018-07-12T01:15:17.459Z,1.40
2018-07-12T01:17:44.643Z,1.50
2018-07-12T01:20:11.824Z,1.30
2018-07-12T01:22:38.995Z,1.30
2018-07-12T01:25:06.144Z,1.30
2018-07-12T01:27:33.323Z,1.63
2018-07-12T01:30:00.497Z,1.50
2018-07-12T01:32:27.668Z,1.60
2018-07-12T01:34:54.889Z,1.60
2018-07-12T01:37:22.037Z,1.50
2018-07-12T01:39:49.233Z,1.50
2018-07-12T01:42:16.516Z,1.50
2018-07-12T01:44:43.987Z,1.40
2018-07-12T01:47:11.775Z,1.43
2018-07-12T01:49:38.935Z,1.60
2018-07-12T01:52:06.210Z,1.73
2018-07-12T01:54:33.391Z,1.40
2018-07-12T01:57:00.576Z,1.67
2018-07-12T01:59:28.104Z,1.43
2018-07-12T02:01:55.261Z,1.30
2018-07-12T02:04:22.411Z,1.60
2018-07-12T02:06:49.568Z,1.50
2018-07-12T02:09:17.100Z,1.97
2018-07-12T02:11:44.275Z,1.80
2018-07-12T02:14:11.452Z,1.80
2018-07-12T02:16:39.011Z,1.50
2018-07-12T02:19:06.156Z,1.50
2018-07-12T02:21:33.356Z,1.40
2018-07-12T02:24:01.777Z,1.20
2018-07-12T02:26:29.408Z,1.80
2018-07-12T02:28:56.757Z,1.37
2018-07-12T02:31:24.047Z,1.63
2018-07-12T02:33:51.198Z,1.70
2018-07-12T02:36:18.412Z,1.60
2018-07-12T02:38:45.684Z,1.40
2018-07-12T02:41:12.926Z,1.30
2018-07-12T02:43:40.196Z,1.60
2018-07-12T02:46:07.361Z,1.50
2018-07-12T02:48:36.149Z,1.40
2018-07-12T02:51:03.608Z,1.37
2018-07-12T02:53:30.764Z,1.50
2018-07-12T02:55:57.929Z,1.67
2018-07-12T02:58:25.184Z,1.63
2018-07-12T03:00:52.336Z,1.33
2018-07-12T03:03:19.521Z,1.77
2018-07-12T03:05:46.693Z,2.03
2018-07-12T03:08:13.847Z,1.60
2018-07-12T03:10:41.151Z,1.77
2018-07-12T03:13:08.376Z,1.80
2018-07-12T03:15:35.562Z,1.70
2018-07-12T03:18:02.724Z,1.83
2018-07-12T03:20:29.902Z,1.77
2018-07-12T03:22:57.087Z,1.70
2018-07-12T03:25:24.228Z,1.40
2018-07-12T03:27:51.484Z,1.70
2018-07-12T03:30:18.652Z,1.57
2018-07-12T03:32:45.815Z,2.10
2018-07-12T03:35:12.989Z,1.90
2018-07-12T03:37:40.136Z,1.93
2018-07-12T03:40:07.283Z,1.80
2018-07-12T03:42:34.440Z,1.67
2018-07-12T03:45:01.604Z,1.87
2018-07-12T03:47:28.775Z,1.90
2018-07-12T03:49:55.920Z,1.93
2018-07-12T03:52:23.067Z,1.80
2018-07-12T03:54:50.212Z,1.73
2018-07-12T03:57:17.368Z,2.07
2018-07-12T03:59:44.503Z,1.80
2018-07-12T04:02:11.658Z,1.70
2018-07-12T04:04:38.805Z,2.00
2018-07-12T04:07:06.028Z,1.77
2018-07-12T04:09:33.200Z,1.97
2018-07-12T04:12:00.356Z,1.53
2018-07-12T04:14:27.536Z,2.17
2018-07-12T04:16:54.706Z,1.60
2018-07-12T04:19:21.851Z,1.80
2018-07-12T04:21:49.001Z,1.93
2018-07-12T04:24:16.132Z,1.60
2018-07-12T04:26:43.487Z,1.63
2018-07-12T04:29:10.642Z,1.90
2018-07-12T04:31:37.823Z,2.53
2018-07-12T04:34:04.991Z,2.23
2018-07-12T04:36:32.175Z,2.10
2018-07-12T04:38:59.351Z,1.90
2018-07-12T04:41:26.516Z,1.90
2018-07-12T04:43:53.712Z,1.83
2018-07-12T04:46:21.259Z,1.70
2018-07-12T04:48:48.495Z,1.77
2018-07-12T04:51:15.674Z,2.07
2018-07-12T04:53:42.845Z,1.97
2018-07-12T04:56:10.008Z,1.80
2018-07-12T04:58:37.189Z,1.80
2018-07-12T05:01:04.392Z,2.27
2018-07-12T05:03:31.636Z,1.90
2018-07-12T05:05:58.807Z,1.90
2018-07-12T05:08:26.016Z,1.80
2018-07-12T05:10:53.198Z,2.13
2018-07-12T05:13:20.355Z,2.20
2018-07-12T05:15:47.528Z,1.87
2018-07-12T05:18:14.706Z,2.50
2018-07-12T05:20:41.957Z,1.83
2018-07-12T05:23:21.488Z,1.70
2018-07-12T05:25:49.164Z,2.10
2018-07-12T05:28:23.276Z,1.90
2018-07-12T05:30:50.455Z,1.60
2018-07-12T05:33:18.889Z,2.00
2018-07-12T05:35:47.492Z,1.80
2018-07-12T05:38:16.137Z,2.00
2018-07-12T05:40:44.750Z,2.40
2018-07-12T05:43:13.360Z,1.43
2018-07-12T05:45:42.046Z,2.47
2018-07-12T05:48:10.768Z,1.80
2018-07-12T05:50:43.856Z,2.00
2018-07-12T05:53:12.556Z,1.77
2018-07-12T05:55:41.327Z,1.93
2018-07-12T05:58:09.956Z,2.13
2018-07-12T06:00:38.697Z,2.10
2018-07-12T06:03:07.399Z,1.90
2018-07-12T06:05:38.376Z,1.77
2018-07-12T06:08:07.015Z,1.93
2018-07-12T06:10:35.657Z,1.47
2018-07-12T06:13:04.338Z,1.60
2018-07-12T06:15:32.975Z,1.47
2018-07-12T06:18:01.616Z,1.57
2018-07-12T06:20:29.895Z,1.50
2018-07-12T06:22:58.532Z,1.70
2018-07-12T06:25:27.143Z,1.70
2018-07-12T06:27:55.791Z,1.50
2018-07-12T06:30:24.416Z,1.87
2018-07-12T06:32:53.092Z,1.50
2018-07-12T06:35:21.725Z,1.87
2018-07-12T06:37:50.493Z,1.80
2018-07-12T06:40:18.776Z,1.83
2018-07-12T06:42:47.419Z,2.00
2018-07-12T06:45:16.132Z,2.27
2018-07-12T06:47:44.789Z,2.07
2018-07-12T06:50:13.447Z,1.67
2018-07-12T06:52:42.085Z,1.73
2018-07-12T06:55:10.715Z,1.70
2018-07-12T06:57:39.413Z,2.10
2018-07-12T07:00:08.152Z,1.80
2018-07-12T07:02:36.821Z,2.20
2018-07-12T07:05:05.496Z,1.93
2018-07-12T07:07:34.180Z,1.83
2018-07-12T07:10:02.899Z,1.70
2018-07-12T07:12:31.529Z,1.70
2018-07-12T07:15:00.156Z,1.42
2018-07-12T07:17:28.444Z,1.50
2018-07-12T07:19:57.080Z,1.90
2018-07-12T07:22:25.728Z,1.70
2018-07-12T07:24:54.384Z,1.40
2018-07-12T07:27:23.065Z,1.40
2018-07-12T07:29:51.716Z,1.80
2018-07-12T07:32:20.366Z,1.60
2018-07-12T07:34:48.992Z,1.62
2018-07-12T07:37:18.037Z,1.60
2018-07-12T07:39:46.688Z,1.37
2018-07-12T07:42:15.318Z,1.62
2018-07-12T07:44:43.989Z,1.60
2018-07-12T07:47:12.655Z,1.47
2018-07-12T07:49:41.280Z,1.45
2018-07-12T07:52:09.957Z,1.35
2018-07-12T07:54:38.596Z,1.40
2018-07-12T07:57:07.390Z,1.30
2018-07-12T07:59:36.080Z,1.30
2018-07-12T08:02:04.759Z,1.50
2018-07-12T08:04:33.413Z,1.43
2018-07-12T08:07:02.078Z,1.40
2018-07-12T08:09:30.849Z,1.20
2018-07-12T08:11:59.497Z,1.10
2018-07-12T08:14:28.147Z,1.37
2018-07-12T08:16:56.784Z,1.10
2018-07-12T08:19:25.434Z,1.30
2018-07-12T08:22:10.032Z,1.27
2018-07-12T08:24:38.697Z,1.37
2018-07-12T08:27:07.441Z,1.50
2018-07-12T08:29:36.092Z,1.20
2018-07-12T08:32:05.104Z,1.20
2018-07-12T08:34:33.948Z,1.50
2018-07-12T08:37:02.701Z,1.10
2018-07-12T08:39:31.344Z,1.40
2018-07-12T08:41:59.990Z,1.40
2018-07-12T08:44:28.687Z,1.63
2018-07-12T08:46:57.348Z,1.17
2018-07-12T08:49:26.014Z,1.50
2018-07-12T08:51:55.634Z,1.30
2018-07-12T08:54:25.337Z,1.20
2018-07-12T08:56:55.360Z,1.30
2018-07-12T08:59:23.976Z,1.23
2018-07-12T09:01:52.608Z,1.60
2018-07-12T09:04:21.278Z,1.30
2018-07-12T09:06:49.909Z,1.33
2018-07-12T09:09:18.516Z,1.30
2018-07-12T09:11:47.186Z,1.40
2018-07-12T09:14:15.849Z,1.50
2018-07-12T09:16:44.492Z,1.30
2018-07-12T09:19:13.132Z,1.20
2018-07-12T09:21:41.790Z,1.43
2018-07-12T09:24:10.852Z,1.60
2018-07-12T09:26:39.624Z,1.47
2018-07-12T09:29:08.299Z,1.43
2018-07-12T09:31:36.963Z,1.50
2018-07-12T09:34:05.615Z,1.60
2018-07-12T09:36:34.276Z,1.50
2018-07-12T09:39:03.191Z,1.60
2018-07-12T09:41:31.848Z,1.43
2018-07-12T09:44:00.493Z,1.87
2018-07-12T09:46:29.153Z,1.70
2018-07-12T09:48:57.828Z,1.70
2018-07-12T09:51:26.505Z,1.40
2018-07-12T09:53:55.157Z,1.63
2018-07-12T09:56:33.770Z,1.70
2018-07-12T09:59:02.455Z,1.57
2018-07-12T10:03:41.185Z,1.60
2018-07-12T10:06:15.169Z,1.50
2018-07-12T10:08:50.375Z,1.50
2018-07-12T10:11:25.021Z,1.37
2018-07-12T10:14:00.098Z,1.40
2018-07-12T10:16:35.446Z,1.60
2018-07-12T10:19:04.164Z,1.70
2018-07-12T10:21:32.824Z,1.60
2018-07-12T10:24:01.469Z,1.70
2018-07-12T10:26:30.168Z,1.70
2018-07-12T10:28:58.819Z,1.53
2018-07-12T10:31:27.454Z,1.50
2018-07-12T10:33:56.168Z,1.70
2018-07-12T10:36:24.908Z,2.10
2018-07-12T10:38:53.543Z,2.33
2018-07-12T10:41:22.217Z,2.20
2018-07-12T10:43:51.103Z,1.80
2018-07-12T10:46:19.772Z,1.93
2018-07-12T10:48:48.484Z,2.00
2018-07-12T10:51:17.108Z,2.20
2018-07-12T10:53:45.725Z,2.07
2018-07-12T10:56:14.414Z,2.10
2018-07-12T10:58:43.040Z,2.10
2018-07-12T11:01:11.660Z,2.40
2018-07-12T11:03:40.352Z,2.57
2018-07-12T11:06:08.991Z,2.23
2018-07-12T11:08:37.620Z,2.10
2018-07-12T11:11:06.277Z,2.80
2018-07-12T11:13:46.660Z,2.47
2018-07-12T11:16:15.432Z,2.10
2018-07-12T11:18:44.117Z,2.00
2018-07-12T11:21:13.075Z,2.53
2018-07-12T11:23:41.903Z,2.23
2018-07-12T11:26:10.832Z,1.93
2018-07-12T11:28:39.524Z,2.10
2018-07-12T11:31:08.321Z,1.83
2018-07-12T11:33:38.392Z,2.10
2018-07-12T11:36:07.440Z,2.00
2018-07-12T11:38:37.301Z,2.40
2018-07-12T11:41:06.294Z,2.10
2018-07-12T11:43:34.934Z,1.77
2018-07-12T11:46:04.756Z,2.07
2018-07-12T11:48:34.761Z,2.20
2018-07-12T11:51:03.468Z,2.03
2018-07-12T11:53:32.121Z,2.70
2018-07-12T11:56:02.772Z,2.20
2018-07-12T11:58:31.084Z,2.27
2018-07-12T12:01:00.915Z,2.03
2018-07-12T12:03:40.265Z,2.43
2018-07-12T12:06:13.898Z,1.75
2018-07-12T12:08:49.767Z,1.90
2018-07-12T12:11:18.416Z,2.20
2018-07-12T12:13:47.124Z,1.90
2018-07-12T12:16:15.765Z,2.10
2018-07-12T12:18:44.456Z,2.17
2018-07-12T12:21:13.127Z,2.13
2018-07-12T12:23:45.495Z,1.77
2018-07-12T12:26:14.143Z,1.90
2018-07-12T12:28:42.828Z,1.87
2018-07-12T12:31:11.584Z,2.30
2018-07-12T12:33:40.267Z,1.63
2018-07-12T12:36:08.938Z,2.53
2018-07-12T12:38:38.105Z,2.13
2018-07-12T12:41:06.912Z,2.00
2018-07-12T12:43:35.540Z,1.90
2018-07-12T12:46:04.227Z,2.03
2018-07-12T12:48:32.908Z,2.00
2018-07-12T12:51:01.565Z,2.13
2018-07-12T12:53:30.205Z,1.80
2018-07-12T12:55:59.405Z,2.30
2018-07-12T12:58:28.035Z,2.07
2018-07-12T13:00:56.870Z,2.10
2018-07-12T13:03:25.498Z,2.10
2018-07-12T13:05:54.159Z,2.30
2018-07-12T13:08:22.819Z,1.93
2018-07-12T13:10:51.472Z,2.30
2018-07-12T13:13:20.115Z,2.40
2018-07-12T13:15:48.798Z,1.87
2018-07-12T13:18:17.452Z,2.17
2018-07-12T13:20:46.068Z,2.33
2018-07-12T13:23:14.899Z,2.23
2018-07-12T13:25:43.661Z,2.80
2018-07-12T13:28:12.271Z,2.43
2018-07-12T13:30:41.040Z,2.53
2018-07-12T13:33:09.984Z,2.27
2018-07-12T13:35:38.656Z,2.30
2018-07-12T13:38:07.305Z,2.70
2018-07-12T13:40:35.952Z,2.07
2018-07-12T13:43:04.573Z,2.57
2018-07-12T13:45:33.268Z,2.13
2018-07-12T13:48:01.908Z,2.30
2018-07-12T13:50:30.608Z,2.50
2018-07-12T13:52:59.260Z,2.17
2018-07-12T13:55:58.640Z,2.40
2018-07-12T13:58:27.332Z,2.30
2018-07-12T14:00:55.984Z,2.70
2018-07-12T14:03:24.916Z,2.10
2018-07-12T14:05:53.602Z,2.17
2018-07-12T14:08:22.242Z,2.00
2018-07-12T14:10:50.916Z,2.30
2018-07-12T14:13:19.593Z,2.50
2018-07-12T14:15:48.246Z,2.43
2018-07-12T14:18:16.883Z,2.20
2018-07-12T14:20:45.507Z,5.40
2018-07-12T14:23:14.139Z,2.37
2018-07-12T14:25:42.748Z,2.00
2018-07-12T14:28:11.361Z,2.43
2018-07-12T14:30:40.012Z,2.20
2018-07-12T14:33:08.744Z,2.20
2018-07-12T14:35:37.365Z,1.93
2018-07-12T14:38:06.008Z,2.37
2018-07-12T14:40:34.623Z,2.30
2018-07-12T14:43:03.275Z,2.40
2018-07-12T14:45:31.938Z,2.90
2018-07-12T14:48:00.553Z,1.93
2018-07-12T14:50:29.206Z,2.07
2018-07-12T14:52:57.816Z,2.43
2018-07-12T14:55:26.436Z,2.43
2018-07-12T14:57:55.068Z,2.53
2018-07-12T15:00:23.808Z,2.70
2018-07-12T15:02:52.499Z,3.07
2018-07-12T15:05:21.144Z,2.77
2018-07-12T15:07:49.785Z,3.57
2018-07-12T15:10:18.405Z,2.67
2018-07-12T15:12:47.052Z,2.83
2018-07-12T15:15:16.352Z,2.70
2018-07-12T15:17:45.012Z,2.40
2018-07-12T15:20:13.656Z,2.43
2018-07-12T15:22:42.571Z,2.67
2018-07-12T15:25:12.165Z,2.43
2018-07-12T15:27:40.810Z,2.45
2018-07-12T15:30:09.432Z,2.60
2018-07-12T15:32:38.072Z,2.20
2018-07-12T15:35:06.757Z,2.40
2018-07-12T15:37:35.377Z,2.80
2018-07-12T15:40:04.008Z,2.77
2018-07-12T15:42:32.626Z,2.20
2018-07-12T15:45:01.264Z,1.90
2018-07-12T15:47:29.997Z,2.53
2018-07-12T15:49:58.605Z,2.03
2018-07-12T15:52:27.239Z,2.27
2018-07-12T15:54:55.904Z,2.20
2018-07-12T15:57:24.536Z,2.20
2018-07-12T15:59:53.180Z,2.37
2018-07-12T16:02:21.810Z,2.30
2018-07-12T16:04:50.490Z,2.20
2018-07-12T16:07:19.108Z,2.27
2018-07-12T16:09:47.748Z,2.40
2018-07-12T16:12:16.365Z,2.13
2018-07-12T16:14:45.000Z,2.07
2018-07-12T16:17:13.617Z,1.97
2018-07-12T16:19:42.252Z,2.30
2018-07-12T16:22:10.866Z,2.43
2018-07-12T16:24:39.472Z,1.93
2018-07-12T16:27:08.105Z,2.33
2018-07-12T16:29:36.744Z,2.27
2018-07-12T16:32:05.431Z,1.90
2018-07-12T16:34:34.041Z,2.20
2018-07-12T16:37:02.846Z,2.33
2018-07-12T16:39:31.570Z,2.07
2018-07-12T16:42:00.340Z,2.20
2018-07-12T16:44:28.916Z,2.43
2018-07-12T16:46:57.556Z,2.17
2018-07-12T16:49:26.172Z,2.00
2018-07-12T16:51:54.806Z,2.30
2018-07-12T16:54:23.428Z,2.03
2018-07-12T16:56:51.702Z,2.10
2018-07-12T16:59:20.340Z,1.73
2018-07-12T17:01:48.952Z,3.00
2018-07-12T17:04:17.616Z,2.23
2018-07-12T17:06:46.241Z,1.87
2018-07-12T17:09:14.885Z,1.70
2018-07-12T17:11:43.520Z,1.87
2018-07-12T17:14:12.423Z,2.03
2018-07-12T17:16:41.021Z,1.70
2018-07-12T17:19:09.639Z,1.77
2018-07-12T17:21:38.256Z,2.20
2018-07-12T17:24:06.916Z,2.27
2018-07-12T17:26:35.525Z,1.83
2018-07-12T17:29:04.197Z,1.67
2018-07-12T17:31:32.848Z,2.00
2018-07-12T17:34:01.476Z,2.13
2018-07-12T17:36:30.115Z,2.20
2018-07-12T17:38:58.780Z,2.10
2018-07-12T17:41:27.476Z,2.07
2018-07-12T17:43:56.152Z,1.77
2018-07-12T17:46:24.767Z,1.83
2018-07-12T17:48:53.387Z,1.70
2018-07-12T17:51:22.025Z,2.10
2018-07-12T17:53:50.661Z,2.17
2018-07-12T17:56:19.031Z,1.70
2018-07-12T17:58:47.736Z,1.93
2018-07-12T18:01:16.387Z,1.67
2018-07-12T18:03:45.012Z,2.10
2018-07-12T18:06:13.676Z,2.10
2018-07-12T18:08:42.292Z,2.03
2018-07-12T18:11:10.923Z,1.60
2018-07-12T18:13:39.595Z,1.70
2018-07-12T18:16:08.200Z,1.97
2018-07-12T18:18:36.819Z,1.53
2018-07-12T18:21:05.924Z,1.83
2018-07-12T18:23:34.548Z,2.07
2018-07-12T18:26:03.199Z,1.77
2018-07-12T18:28:31.853Z,1.63
2018-07-12T18:31:00.480Z,2.50
2018-07-12T18:33:29.099Z,1.83
2018-07-12T18:35:57.728Z,2.30
2018-07-12T18:38:26.375Z,1.77
2018-07-12T18:40:54.677Z,2.10
2018-07-12T18:43:23.367Z,2.40
2018-07-12T18:45:52.096Z,2.47
2018-07-12T18:48:20.732Z,2.57
2018-07-12T18:50:49.364Z,2.57
2018-07-12T18:53:17.977Z,2.50
2018-07-12T18:55:46.641Z,1.93
2018-07-12T18:58:15.296Z,2.50
2018-07-12T19:00:43.912Z,2.77
2018-07-12T19:03:12.529Z,2.30
2018-07-12T19:05:41.157Z,2.63
2018-07-12T19:08:09.763Z,2.50
2018-07-12T19:10:38.390Z,2.40
2018-07-12T19:13:07.036Z,2.40
2018-07-12T19:15:35.664Z,2.63
2018-07-12T19:18:04.309Z,2.37
2018-07-12T19:20:32.973Z,3.13
2018-07-12T19:23:01.606Z,2.57
2018-07-12T19:25:30.239Z,2.80
2018-07-12T19:27:58.908Z,2.60
2018-07-12T19:30:27.567Z,2.40
2018-07-12T19:32:56.223Z,2.77
2018-07-12T19:35:24.907Z,2.87
2018-07-12T19:37:53.657Z,2.30
2018-07-12T19:40:22.280Z,2.83
2018-07-12T19:42:51.010Z,2.77
2018-07-12T19:45:19.692Z,2.90
2018-07-12T19:47:48.333Z,3.10
2018-07-12T19:50:17.058Z,2.90
2018-07-12T19:52:47.331Z,2.73
2018-07-12T19:55:15.960Z,3.07
2018-07-12T19:57:44.737Z,2.87
2018-07-12T20:00:14.268Z,2.77
2018-07-12T20:02:43.448Z,3.00
2018-07-12T20:05:12.686Z,3.27
2018-07-12T20:07:41.368Z,3.20
2018-07-12T20:10:10.097Z,2.83
2018-07-12T20:12:38.835Z,3.10
2018-07-12T20:15:07.533Z,2.97
2018-07-12T20:17:37.027Z,3.13
2018-07-12T20:20:06.329Z,2.90
2018-07-12T20:22:35.097Z,3.03
2018-07-12T20:25:03.789Z,2.90
2018-07-12T20:27:32.462Z,3.33
2018-07-12T20:30:01.401Z,2.47
2018-07-12T20:32:30.050Z,2.90
2018-07-12T20:34:58.748Z,3.40
2018-07-12T20:37:27.434Z,3.80
2018-07-12T20:39:56.148Z,3.77
2018-07-12T20:42:24.865Z,3.10
2018-07-12T20:44:54.160Z,3.37
2018-07-12T20:47:23.685Z,3.33
2018-07-12T20:49:52.343Z,3.10
2018-07-12T20:52:21.036Z,3.00
2018-07-12T20:54:49.763Z,3.40
2018-07-12T20:57:18.467Z,3.00
2018-07-12T20:59:47.161Z,3.17
2018-07-12T21:02:16.238Z,3.37
2018-07-12T21:04:44.933Z,3.77
2018-07-12T21:07:13.599Z,3.33
2018-07-12T21:09:42.260Z,3.17
2018-07-12T21:12:10.936Z,3.43
2018-07-12T21:14:39.603Z,3.23
2018-07-12T21:17:08.317Z,3.63
2018-07-12T21:19:36.987Z,3.23
2018-07-12T21:22:05.789Z,3.40
2018-07-12T21:24:34.436Z,3.50
2018-07-12T21:27:03.144Z,3.17
2018-07-12T21:29:31.783Z,3.70
2018-07-12T21:32:00.796Z,3.13
2018-07-12T21:34:29.460Z,3.47
2018-07-12T21:36:58.144Z,3.40
2018-07-12T21:39:26.788Z,3.87
2018-07-12T21:41:55.449Z,3.87
2018-07-12T21:44:24.193Z,4.07
2018-07-12T21:46:52.920Z,4.10
2018-07-12T21:49:21.627Z,4.00
2018-07-12T21:51:50.650Z,3.73
2018-07-12T21:54:19.248Z,4.03
2018-07-12T21:56:47.927Z,3.80
2018-07-12T21:59:16.591Z,3.43
2018-07-12T22:01:45.276Z,3.60
2018-07-12T22:04:13.920Z,3.60
2018-07-12T22:07:08.185Z,3.47
2018-07-12T22:09:37.188Z,3.40
2018-07-12T22:12:05.909Z,3.90
2018-07-12T22:14:34.579Z,3.90
2018-07-12T22:17:03.224Z,4.00
2018-07-12T22:19:31.892Z,4.10
2018-07-12T22:22:00.536Z,3.90
2018-07-12T22:24:29.189Z,3.53
2018-07-12T22:26:57.845Z,3.90
2018-07-12T22:29:26.503Z,3.50
2018-07-12T22:31:55.167Z,4.17
2018-07-12T22:34:23.822Z,3.60
2018-07-12T22:36:52.620Z,3.30
2018-07-12T22:39:21.252Z,4.10
2018-07-12T22:41:50.022Z,3.47
2018-07-12T22:44:18.637Z,3.73
2018-07-12T22:46:47.325Z,3.37
2018-07-12T22:49:15.982Z,3.93
2018-07-12T22:51:44.673Z,3.70
2018-07-12T22:54:13.333Z,3.57
2018-07-12T22:56:41.968Z,3.37
2018-07-12T22:59:10.628Z,3.43
2018-07-12T23:01:38.908Z,3.50
2018-07-12T23:04:07.566Z,3.33
2018-07-12T23:06:36.330Z,3.97
2018-07-12T23:09:05.768Z,3.30
2018-07-12T23:11:34.566Z,2.90
2018-07-12T23:14:03.280Z,3.37
2018-07-12T23:16:31.960Z,3.73
2018-07-12T23:19:00.697Z,3.70
2018-07-12T23:21:29.415Z,3.70
2018-07-12T23:23:58.118Z,3.70
2018-07-12T23:26:26.768Z,3.70
2018-07-12T23:28:55.453Z,3.83
2018-07-12T23:31:24.139Z,3.50
2018-07-12T23:33:52.836Z,4.30
2018-07-12T23:36:21.569Z,4.10
2018-07-12T23:38:50.236Z,3.90
2018-07-12T23:41:18.925Z,3.60
2018-07-12T23:43:47.576Z,3.73
2018-07-12T23:46:16.256Z,3.83
2018-07-12T23:48:44.915Z,3.57
2018-07-12T23:51:13.647Z,3.90
2018-07-12T23:53:41.936Z,3.77
2018-07-12T23:56:11.179Z,4.10
2018-07-12T23:58:39.849Z,3.97
